createdAt,value
2022-11-22T00:02:44.729Z,7.10
2022-11-22T00:10:08.240Z,7.10
2022-11-22T00:12:35.287Z,7.10
2022-11-22T00:17:29.084Z,7.00
2022-11-22T00:19:55.728Z,7.00
2022-11-22T00:22:22.421Z,7.10
2022-11-22T00:24:51.315Z,7.10
2022-11-22T00:27:18.949Z,7.20
2022-11-22T00:29:45.617Z,7.10
2022-11-22T00:32:13.142Z,7.10
2022-11-22T00:37:07.321Z,7.10
2022-11-22T00:49:22.498Z,7.10
2022-11-22T00:51:49.189Z,7.20
2022-11-22T00:56:42.936Z,7.20
2022-11-22T01:04:03.918Z,7.30
2022-11-22T01:13:51.786Z,7.30
2022-11-22T01:16:18.505Z,7.30
2022-11-22T01:18:45.779Z,7.30
2022-11-22T01:21:12.580Z,7.30
2022-11-22T01:26:09.563Z,7.20
2022-11-22T01:28:36.735Z,7.10
2022-11-22T01:40:53.472Z,6.90
2022-11-22T01:43:26.103Z,6.90
2022-11-22T01:46:03.788Z,6.80
2022-11-22T01:48:54.443Z,6.70
2022-11-22T01:51:29.647Z,6.60
2022-11-22T01:54:00.530Z,6.60
2022-11-22T01:56:29.646Z,6.60
2022-11-22T01:59:03.637Z,6.50
2022-11-22T02:04:00.600Z,6.40
2022-11-22T02:06:58.471Z,6.30
2022-11-22T02:09:26.760Z,6.20
2022-11-22T02:11:58.349Z,6.20
2022-11-22T02:14:26.633Z,6.10
2022-11-22T02:16:53.788Z,6.10
2022-11-22T02:19:45.423Z,6.00
2022-11-22T02:22:32.871Z,6.00
2022-11-22T02:25:15.455Z,6.00
2022-11-22T02:27:42.320Z,5.90
2022-11-22T02:30:09.375Z,5.90
2022-11-22T02:32:36.136Z,5.90
2022-11-22T02:35:03.004Z,5.80
2022-11-22T02:37:32.626Z,5.80
2022-11-22T02:40:07.558Z,5.70
2022-11-22T02:42:35.492Z,5.70
2022-11-22T02:52:23.471Z,5.60
2022-11-22T02:57:17.218Z,5.50
2022-11-22T02:59:43.874Z,5.50
2022-11-22T03:02:10.528Z,5.50
2022-11-22T03:07:04.496Z,5.50
2022-11-22T03:11:59.376Z,5.40
2022-11-22T03:14:26.336Z,5.40
2022-11-22T03:29:08.942Z,5.30
2022-11-22T03:31:36.146Z,5.30
2022-11-22T03:34:02.835Z,5.30
2022-11-22T03:41:23.646Z,5.20
2022-11-22T03:43:50.315Z,5.20
2022-11-22T03:46:19.547Z,5.10
2022-11-22T03:48:46.989Z,5.10
2022-11-22T03:51:13.902Z,5.10
2022-11-22T03:56:07.704Z,5.00
2022-11-22T03:58:34.660Z,5.10
2022-11-22T04:03:28.801Z,5.00
2022-11-22T04:08:22.694Z,5.10
2022-11-22T04:10:50.516Z,5.10
2022-11-22T04:13:17.502Z,5.00
2022-11-22T04:18:12.419Z,5.00
2022-11-22T04:20:57.980Z,5.00
2022-11-22T04:23:32.271Z,5.00
2022-11-22T04:28:53.581Z,5.00
2022-11-22T04:34:00.023Z,4.90
2022-11-22T04:44:06.536Z,4.80
2022-11-22T04:56:40.545Z,4.70
2022-11-22T04:59:07.255Z,4.70
2022-11-22T05:04:01.161Z,4.60
2022-11-22T05:08:55.256Z,4.60
2022-11-22T05:11:21.910Z,4.60
2022-11-22T05:13:48.604Z,4.60
2022-11-22T05:16:15.941Z,4.50
2022-11-22T05:18:42.753Z,4.60
2022-11-22T05:21:11.412Z,4.50
2022-11-22T05:26:35.148Z,4.40
2022-11-22T05:29:10.363Z,4.50
2022-11-22T05:31:38.497Z,4.40
2022-11-22T05:36:34.135Z,4.40
2022-11-22T05:41:28.582Z,4.30
2022-11-22T05:43:56.729Z,4.40
2022-11-22T05:46:28.938Z,4.30
2022-11-22T05:48:57.671Z,4.40
2022-11-22T05:51:32.267Z,4.40
2022-11-22T05:54:00.993Z,4.30
2022-11-22T05:56:27.759Z,4.30
2022-11-22T06:01:23.534Z,4.30
2022-11-22T06:03:50.769Z,4.30
2022-11-22T06:06:17.886Z,4.30
2022-11-22T06:08:47.673Z,4.40
2022-11-22T06:11:27.806Z,4.40
2022-11-22T06:13:57.562Z,4.30
2022-11-22T06:16:25.941Z,4.40
2022-11-22T06:18:53.702Z,4.40
2022-11-22T06:21:23.726Z,4.30
2022-11-22T06:23:51.721Z,4.30
2022-11-22T06:26:20.359Z,4.30
2022-11-22T06:31:23.002Z,4.30
2022-11-22T06:36:19.926Z,4.20
2022-11-22T06:38:46.764Z,4.20
2022-11-22T06:41:16.170Z,4.20
2022-11-22T06:43:48.631Z,4.20
2022-11-22T06:46:17.620Z,4.20
2022-11-22T06:48:44.293Z,4.20
2022-11-22T06:51:14.098Z,4.20
2022-11-22T06:53:49.267Z,4.20
2022-11-22T06:58:44.217Z,4.20
2022-11-22T07:01:16.605Z,4.30
2022-11-22T07:03:43.952Z,4.30
2022-11-22T07:06:12.628Z,4.30
2022-11-22T07:08:40.030Z,4.30
2022-11-22T07:11:12.545Z,4.40
2022-11-22T07:16:08.479Z,4.40
2022-11-22T07:21:12.852Z,4.40
2022-11-22T07:23:44.280Z,4.40
2022-11-22T07:26:12.325Z,4.50
2022-11-22T07:31:08.293Z,4.50
2022-11-22T07:33:35.395Z,4.50
2022-11-22T07:36:10.153Z,4.50
2022-11-22T07:38:38.071Z,4.50
2022-11-22T07:41:05.993Z,4.60
2022-11-22T07:43:33.401Z,4.60
2022-11-22T07:48:27.580Z,4.60
2022-11-22T07:58:15.638Z,4.70
2022-11-22T08:00:42.326Z,4.70
2022-11-22T08:05:36.265Z,4.80
2022-11-22T08:10:30.115Z,5.00
2022-11-22T08:13:00.053Z,5.00
2022-11-22T08:15:27.185Z,5.10
2022-11-22T08:17:53.923Z,5.30
2022-11-22T08:20:20.683Z,5.30
2022-11-22T08:22:47.358Z,5.40
2022-11-22T08:27:42.894Z,5.60
2022-11-22T08:30:12.755Z,5.70
2022-11-22T08:40:01.328Z,6.10
2022-11-22T08:42:28.004Z,6.10
2022-11-22T08:47:22.207Z,6.30
2022-11-22T08:52:16.094Z,6.40
2022-11-22T08:57:09.805Z,6.50
2022-11-22T09:02:03.801Z,6.70
2022-11-22T09:04:30.580Z,6.90
2022-11-22T09:09:46.875Z,7.10
2022-11-22T09:17:08.690Z,7.40
2022-11-22T09:24:31.795Z,7.60
2022-11-22T09:26:58.473Z,7.70
2022-11-22T09:29:26.321Z,7.80
2022-11-22T09:31:53.039Z,7.90
2022-11-22T09:36:46.753Z,8.30
2022-11-22T09:39:13.494Z,8.50
2022-11-22T09:42:23.327Z,8.60
2022-11-22T09:45:11.669Z,8.60
2022-11-22T09:47:59.426Z,8.60
2022-11-22T09:51:01.324Z,8.60
2022-11-22T09:53:45.606Z,8.60
2022-11-22T09:56:15.003Z,8.50
2022-11-22T10:01:22.770Z,8.50
2022-11-22T10:03:58.777Z,8.50
2022-11-22T10:06:34.891Z,8.60
2022-11-22T10:09:13.734Z,8.60
2022-11-22T10:12:00.828Z,8.60
2022-11-22T10:15:07.857Z,8.50
2022-11-22T10:17:49.736Z,8.40
2022-11-22T10:20:17.394Z,8.40
2022-11-22T10:22:44.479Z,8.30
2022-11-22T10:25:36.042Z,8.40
2022-11-22T10:28:38.902Z,8.60
2022-11-22T10:31:20.475Z,8.70
2022-11-22T10:36:20.384Z,9.00
2022-11-22T10:41:32.489Z,9.10
2022-11-22T10:44:16.734Z,9.20
2022-11-22T10:47:19.996Z,9.20
2022-11-22T10:50:05.262Z,9.20
2022-11-22T10:52:53.479Z,9.20
2022-11-22T10:55:44.567Z,9.20
2022-11-22T10:58:23.592Z,9.30
2022-11-22T11:01:02.277Z,9.40
2022-11-22T11:03:51.210Z,9.40
2022-11-22T11:10:02.751Z,9.60
2022-11-22T11:12:03.199Z,9.50
2022-11-22T11:14:48.469Z,9.50
2022-11-22T11:17:20.938Z,9.60
2022-11-22T11:19:50.482Z,9.70
2022-11-22T11:22:42.713Z,9.70
2022-11-22T11:25:27.215Z,9.70
2022-11-22T11:27:54.175Z,9.80
2022-11-22T11:30:20.959Z,9.90
2022-11-22T11:32:55.653Z,9.90
2022-11-22T11:35:26.748Z,9.90
2022-11-22T11:37:55.681Z,9.80
2022-11-22T11:40:28.289Z,9.70
2022-11-22T11:43:21.235Z,9.60
2022-11-22T11:45:48.287Z,9.60
2022-11-22T11:48:38.068Z,9.70
2022-11-22T11:51:15.759Z,9.70
2022-11-22T11:54:03.579Z,9.80
2022-11-22T11:56:40.696Z,9.80
2022-11-22T11:59:15.595Z,9.80
2022-11-22T12:02:14.531Z,9.90
2022-11-22T12:04:50.364Z,10.00
2022-11-22T12:07:25.352Z,10.00
2022-11-22T12:09:54.505Z,9.90
2022-11-22T12:12:39.376Z,9.70
2022-11-22T12:15:26.118Z,9.60
2022-11-22T12:18:11.974Z,9.50
2022-11-22T12:21:23.267Z,9.60
2022-11-22T12:24:19.518Z,9.60
2022-11-22T12:26:46.077Z,9.60
2022-11-22T12:29:14.400Z,9.70
2022-11-22T12:31:44.425Z,9.70
2022-11-22T12:34:18.495Z,9.70
2022-11-22T12:37:00.569Z,9.70
2022-11-22T12:39:29.150Z,9.70
2022-11-22T12:42:08.859Z,9.70
2022-11-22T12:44:42.389Z,9.70
2022-11-22T12:47:18.252Z,9.60
2022-11-22T12:50:24.834Z,9.60
2022-11-22T12:53:04.950Z,9.60
2022-11-22T12:55:42.626Z,9.60
2022-11-22T12:58:12.406Z,9.70
2022-11-22T13:00:52.184Z,9.70
2022-11-22T13:03:30.989Z,9.70
2022-11-22T13:06:00.474Z,9.60
2022-11-22T13:08:39.545Z,9.60
2022-11-22T13:13:46.464Z,9.50
2022-11-22T13:16:13.922Z,9.50
2022-11-22T13:19:00.210Z,9.60
2022-11-22T13:21:29.952Z,9.50
2022-11-22T13:24:14.521Z,9.50
2022-11-22T13:27:16.026Z,9.50
2022-11-22T13:29:43.465Z,9.50
2022-11-22T13:32:13.116Z,9.50
2022-11-22T13:35:01.034Z,8.00
2022-11-22T13:37:30.346Z,9.50
2022-11-22T13:42:26.974Z,9.40
2022-11-22T13:44:56.625Z,9.50
2022-11-22T13:49:53.519Z,9.50
2022-11-22T13:57:26.917Z,9.60
2022-11-22T14:00:14.715Z,9.70
2022-11-22T14:03:11.490Z,9.70
2022-11-22T14:05:41.963Z,9.70
2022-11-22T14:08:29.623Z,9.70
2022-11-22T14:10:56.260Z,9.70
2022-11-22T14:13:32.300Z,9.70
2022-11-22T14:16:08.074Z,9.70
2022-11-22T14:18:55.372Z,9.60
2022-11-22T14:21:41.188Z,9.60
2022-11-22T14:24:33.203Z,9.60
2022-11-22T14:27:09.688Z,9.50
2022-11-22T14:32:24.672Z,9.60
2022-11-22T14:35:06.341Z,9.60
2022-11-22T14:37:34.871Z,9.60
2022-11-22T14:40:07.325Z,9.60
2022-11-22T14:42:37.034Z,9.50
2022-11-22T14:45:12.220Z,9.50
2022-11-22T14:47:54.163Z,9.40
2022-11-22T14:50:44.477Z,9.40
2022-11-22T14:53:29.938Z,9.40
2022-11-22T14:56:23.409Z,9.50
2022-11-22T14:59:27.876Z,9.40
2022-11-22T15:02:03.575Z,9.40
2022-11-22T15:09:10.056Z,9.40
2022-11-22T15:09:19.185Z,9.30
2022-11-22T15:11:04.479Z,9.30
2022-11-22T15:13:56.077Z,9.40
2022-11-22T15:57:45.701Z,9.10
2022-11-22T16:00:29.414Z,9.10
2022-11-22T16:03:06.721Z,9.10
2022-11-22T16:06:08.430Z,9.10
2022-11-22T16:08:22.334Z,9.10
2022-11-22T16:10:50.985Z,9.10
2022-11-22T16:13:20.365Z,9.10
2022-11-22T16:16:11.104Z,9.10
2022-11-22T16:18:39.225Z,9.10
2022-11-22T16:21:11.991Z,9.10
2022-11-22T16:23:40.056Z,9.10
2022-11-22T16:26:30.001Z,9.10
2022-11-22T16:29:16.047Z,9.10
2022-11-22T16:31:42.739Z,9.10
2022-11-22T16:34:16.046Z,9.10
2022-11-22T16:39:09.864Z,9.10
2022-11-22T16:44:12.539Z,9.00
2022-11-22T16:46:42.697Z,9.10
2022-11-22T16:49:20.982Z,9.10
2022-11-22T16:51:50.201Z,9.00
2022-11-22T16:54:19.375Z,9.00
2022-11-22T16:56:46.742Z,9.10
2022-11-22T17:01:42.606Z,9.00
2022-11-22T17:04:20.446Z,9.10
2022-11-22T17:09:14.255Z,9.00
2022-11-22T17:11:43.325Z,9.00
2022-11-22T17:14:17.982Z,9.00
2022-11-22T17:19:45.693Z,9.00
2022-11-22T17:22:06.871Z,9.00
2022-11-22T17:32:15.363Z,8.90
2022-11-22T17:37:12.791Z,8.90
2022-11-22T17:39:40.181Z,8.90
2022-11-22T17:44:34.112Z,8.90
2022-11-22T17:47:00.926Z,8.80
2022-11-22T17:54:22.773Z,8.70
2022-11-22T17:59:16.564Z,8.70
2022-11-22T18:01:43.365Z,8.70
2022-11-22T18:04:10.264Z,8.60
2022-11-22T18:06:37.104Z,8.60
2022-11-22T18:11:31.253Z,8.60
2022-11-22T18:16:28.878Z,8.60
2022-11-22T18:18:57.889Z,8.60
2022-11-22T18:21:29.795Z,8.70
2022-11-22T18:23:58.130Z,8.60
2022-11-22T18:34:24.446Z,8.60
2022-11-22T18:37:07.498Z,8.60
2022-11-22T18:39:37.800Z,8.60
2022-11-22T18:42:07.349Z,8.60
2022-11-22T18:44:34.017Z,8.60
2022-11-22T18:49:28.050Z,8.60
2022-11-22T18:51:55.616Z,8.60
2022-11-22T18:54:22.930Z,8.60
2022-11-22T18:56:52.928Z,8.60
2022-11-22T19:01:46.923Z,8.70
2022-11-22T19:06:42.845Z,8.70
2022-11-22T19:09:10.021Z,8.70
2022-11-22T19:14:04.361Z,8.70
2022-11-22T19:18:58.749Z,8.70
2022-11-22T19:21:28.381Z,8.70
2022-11-22T19:23:56.431Z,9.40
2022-11-22T19:26:25.549Z,8.70
2022-11-22T19:28:55.616Z,8.60
2022-11-22T19:31:25.124Z,8.70
2022-11-22T19:33:51.897Z,8.70
2022-11-22T19:36:20.991Z,8.60
2022-11-22T19:38:48.620Z,8.70
2022-11-22T19:41:20.212Z,8.70
2022-11-22T19:43:48.152Z,8.70
2022-11-22T19:48:47.059Z,8.70
2022-11-22T19:51:15.543Z,9.20
2022-11-22T19:53:42.910Z,8.70
2022-11-22T19:56:15.133Z,8.70
2022-11-22T19:58:42.974Z,8.70
2022-11-22T20:01:12.596Z,8.80
2022-11-22T20:03:41.258Z,8.80
2022-11-22T20:06:09.873Z,8.80
2022-11-22T20:11:10.095Z,8.90
2022-11-22T20:13:42.619Z,8.90
2022-11-22T20:16:13.516Z,8.80
2022-11-22T20:21:11.841Z,8.80
2022-11-22T20:26:11.237Z,8.90
2022-11-22T20:28:39.286Z,8.90
2022-11-22T20:31:12.669Z,8.90
2022-11-22T20:33:41.858Z,8.80
2022-11-22T20:36:25.862Z,8.80
2022-11-22T20:38:53.537Z,8.80
2022-11-22T20:41:23.252Z,8.70
2022-11-22T20:46:22.542Z,8.60
2022-11-22T20:51:19.297Z,8.40
2022-11-22T20:56:14.838Z,8.20
2022-11-22T21:01:12.791Z,8.10
2022-11-22T21:06:07.017Z,8.30
2022-11-22T21:08:33.998Z,8.30
2022-11-22T21:11:08.239Z,8.40
2022-11-22T21:13:35.314Z,8.40
2022-11-22T21:16:21.542Z,8.40
2022-11-22T21:19:01.554Z,8.50
2022-11-22T21:21:29.838Z,8.50
2022-11-22T21:23:59.429Z,8.60
2022-11-22T21:28:54.436Z,8.60
2022-11-22T21:31:22.485Z,8.60
2022-11-22T21:33:49.537Z,8.70
2022-11-22T21:46:33.945Z,8.70
2022-11-22T21:51:27.952Z,8.80
2022-11-22T21:53:58.833Z,8.80
2022-11-22T21:56:26.599Z,8.80
2022-11-22T21:58:53.338Z,8.80
2022-11-22T22:01:20.044Z,8.80
2022-11-22T22:06:13.842Z,8.80
2022-11-22T22:08:40.923Z,8.70
2022-11-22T22:13:34.917Z,8.70
2022-11-22T22:16:06.533Z,8.70
2022-11-22T22:18:37.181Z,8.70
2022-11-22T22:21:07.158Z,8.70
2022-11-22T22:23:35.408Z,8.70
2022-11-22T22:26:04.371Z,8.70
2022-11-22T22:28:33.020Z,8.70
2022-11-22T22:31:08.709Z,8.80
2022-11-22T22:33:37.109Z,9.70
2022-11-22T22:36:04.783Z,8.70
2022-11-22T22:38:32.530Z,8.70
2022-11-22T22:41:01.613Z,8.70
2022-11-22T22:43:33.454Z,8.70
2022-11-22T22:46:06.470Z,8.80
2022-11-22T22:48:33.725Z,8.80
2022-11-22T22:51:08.024Z,8.80
2022-11-22T23:01:12.458Z,8.90
2022-11-22T23:06:08.138Z,8.90
2022-11-22T23:08:35.335Z,8.90
2022-11-22T23:11:10.307Z,8.90
2022-11-22T23:13:40.679Z,9.00
2022-11-22T23:16:10.160Z,9.00
2022-11-22T23:18:39.226Z,8.90
2022-11-22T23:21:07.763Z,9.00
2022-11-22T23:23:35.108Z,9.00
2022-11-22T23:26:07.650Z,9.00
2022-11-22T23:31:10.368Z,9.00
2022-11-22T23:33:37.612Z,9.00
2022-11-22T23:36:09.572Z,9.00
2022-11-22T23:38:36.706Z,9.00
2022-11-22T23:41:04.137Z,9.00
2022-11-22T23:45:58.673Z,9.00
2022-11-22T23:48:26.280Z,9.00
2022-11-22T23:50:53.028Z,9.10
2022-11-22T23:58:14.283Z,9.20
